Time;durP1;ratioP1;P1;durP2;ratioP2;P2;SDS_P1;SDS_P2;PMS_P1;PMS_P2;Temp;Humidity;BMP_temperature;BMP_pressure;BME280_temperature;BME280_humidity;BME280_pressure;Samples;Min_cycle;Max_cycle;Signal;HPM_P1;HPM_P2
2021/04/09 00:01:02;;;;;;;8.77;5.77;;;6.3;90.7;;;;;;;;;
2021/04/09 00:02:02;;;;;;;8.73;5.7;;;6.4;91;;;;;;;;;
2021/04/09 00:03:02;;;;;;;10.17;5.53;;;6.3;91.1;;;;;;;;;
2021/04/09 00:03:16;;;;;;;8.7;5.87;;;6.4;91.2;;;;;;;;;
2021/04/09 00:04:02;;;;;;;8.7;5.87;;;6.4;91.2;;;;;;;;;
2021/04/09 00:04:12;;;;;;;8.7;5.87;;;6.4;91.2;;;;;;;;;
2021/04/09 00:05:02;;;;;;;8.4;6.17;;;6.3;91.2;;;;;;;;;
2021/04/09 00:05:14;;;;;;;8.4;6.17;;;6.3;91.2;;;;;;;;;
2021/04/09 00:05:29;;;;;;;10.9;6.7;;;6.4;91.2;;;;;;;;;
2021/04/09 00:06:02;;;;;;;10.9;6.7;;;6.4;91.2;;;;;;;;;
2021/04/09 00:06:16;;;;;;;12.3;6.47;;;6.4;91.2;;;;;;;;;
2021/04/09 00:06:26;;;;;;;12.3;6.47;;;6.4;91.2;;;;;;;;;
2021/04/09 00:07:02;;;;;;;12.3;6.47;;;6.4;91.2;;;;;;;;;
2021/04/09 00:07:17;;;;;;;8.97;6.2;;;6.4;91.1;;;;;;;;;
2021/04/09 00:07:27;;;;;;;8.97;6.2;;;6.4;91.1;;;;;;;;;
2021/04/09 00:07:42;;;;;;;8.97;6.2;;;6.4;91.1;;;;;;;;;
2021/04/09 00:08:02;;;;;;;8.97;6.2;;;6.4;91.1;;;;;;;;;
2021/04/09 00:08:13;;;;;;;8.97;6.2;;;6.4;91.1;;;;;;;;;
2021/04/09 00:08:29;;;;;;;11.87;5.67;;;6.4;91.1;;;;;;;;;
2021/04/09 00:08:39;;;;;;;11.87;5.67;;;6.4;91.1;;;;;;;;;
2021/04/09 00:09:02;;;;;;;11.87;5.67;;;6.4;91.1;;;;;;;;;
2021/04/09 00:09:15;;;;;;;11.87;5.67;;;6.4;91.1;;;;;;;;;
2021/04/09 00:09:30;;;;;;;8.13;5.63;;;6.4;91.2;;;;;;;;;
2021/04/09 00:09:40;;;;;;;8.13;5.63;;;6.4;91.2;;;;;;;;;
2021/04/09 00:09:56;;;;;;;8.13;5.63;;;6.4;91.2;;;;;;;;;
2021/04/09 00:10:02;;;;;;;8.13;5.63;;;6.4;91.2;;;;;;;;;
2021/04/09 00:10:16;;;;;;;8.13;5.63;;;6.4;91.2;;;;;;;;;
2021/04/09 00:10:26;;;;;;;9.07;5.9;;;6.4;91.2;;;;;;;;;
2021/04/09 00:10:42;;;;;;;9.07;5.9;;;6.4;91.2;;;;;;;;;
2021/04/09 00:10:52;;;;;;;9.07;5.9;;;6.4;91.2;;;;;;;;;
2021/04/09 00:11:02;;;;;;;9.07;5.9;;;6.4;91.2;;;;;;;;;
2021/04/09 00:11:17;;;;;;;7.43;5.93;;;6.4;91.3;;;;;;;;;
2021/04/09 00:11:28;;;;;;;7.43;5.93;;;6.4;91.3;;;;;;;;;
2021/04/09 00:11:43;;;;;;;7.43;5.93;;;6.4;91.3;;;;;;;;;
2021/04/09 00:11:53;;;;;;;7.43;5.93;;;6.4;91.3;;;;;;;;;
2021/04/09 00:12:02;;;;;;;7.43;5.93;;;6.4;91.3;;;;;;;;;
2021/04/09 00:12:09;;;;;;;7.43;5.93;;;6.4;91.3;;;;;;;;;
2021/04/09 00:12:14;;;;;;;7.43;5.93;;;6.4;91.3;;;;;;;;;
2021/04/09 00:12:29;;;;;;;9.97;5.7;;;6.4;91.3;;;;;;;;;
2021/04/09 00:12:39;;;;;;;9.97;5.7;;;6.4;91.3;;;;;;;;;
2021/04/09 00:12:56;;;;;;;9.97;5.7;;;6.4;91.3;;;;;;;;;
2021/04/09 00:13:02;;;;;;;9.97;5.7;;;6.4;91.3;;;;;;;;;
2021/04/09 00:13:05;;;;;;;9.97;5.7;;;6.4;91.3;;;;;;;;;
2021/04/09 00:13:15;;;;;;;9.97;5.7;;;6.4;91.3;;;;;;;;;
2021/04/09 00:13:31;;;;;;;8.6;5.93;;;6.3;91.4;;;;;;;;;
2021/04/09 00:13:41;;;;;;;8.6;5.93;;;6.3;91.4;;;;;;;;;
2021/04/09 00:13:56;;;;;;;8.6;5.93;;;6.3;91.4;;;;;;;;;
2021/04/09 00:14:02;;;;;;;8.6;5.93;;;6.3;91.4;;;;;;;;;
2021/04/09 00:14:06;;;;;;;8.6;5.93;;;6.3;91.4;;;;;;;;;
2021/04/09 00:14:17;;;;;;;8.6;5.93;;;6.3;91.4;;;;;;;;;
2021/04/09 00:14:27;;;;;;;11.1;5.9;;;6.4;91.3;;;;;;;;;
2021/04/09 00:14:42;;;;;;;11.1;5.9;;;6.4;91.3;;;;;;;;;
2021/04/09 00:14:52;;;;;;;11.1;5.9;;;6.4;91.3;;;;;;;;;
2021/04/09 00:15:01;;;;;;;11.1;5.9;;;6.4;91.3;;;;;;;;;
2021/04/09 00:15:08;;;;;;;11.1;5.9;;;6.4;91.3;;;;;;;;;
2021/04/09 00:15:13;;;;;;;11.1;5.9;;;6.4;91.3;;;;;;;;;
2021/04/09 00:15:28;;;;;;;10.33;5.73;;;6.4;91.4;;;;;;;;;
2021/04/09 00:15:44;;;;;;;10.33;5.73;;;6.4;91.4;;;;;;;;;
2021/04/09 00:15:54;;;;;;;10.33;5.73;;;6.4;91.4;;;;;;;;;
2021/04/09 00:16:02;;;;;;;10.33;5.73;;;6.4;91.4;;;;;;;;;
2021/04/09 00:16:09;;;;;;;10.33;5.73;;;6.4;91.4;;;;;;;;;
2021/04/09 00:16:14;;;;;;;10.33;5.73;;;6.4;91.4;;;;;;;;;
2021/04/09 00:16:30;;;;;;;7.3;5.9;;;6.3;91.3;;;;;;;;;
2021/04/09 00:16:40;;;;;;;7.3;5.9;;;6.3;91.3;;;;;;;;;
2021/04/09 00:16:55;;;;;;;7.3;5.9;;;6.3;91.3;;;;;;;;;
2021/04/09 00:17:02;;;;;;;7.3;5.9;;;6.3;91.3;;;;;;;;;
2021/04/09 00:17:06;;;;;;;7.3;5.9;;;6.3;91.3;;;;;;;;;
2021/04/09 00:17:16;;;;;;;7.3;5.9;;;6.3;91.3;;;;;;;;;
2021/04/09 00:17:26;;;;;;;8.77;5.7;;;6.3;91.4;;;;;;;;;
2021/04/09 00:17:41;;;;;;;8.77;5.7;;;6.3;91.4;;;;;;;;;
2021/04/09 00:17:57;;;;;;;8.77;5.7;;;6.3;91.4;;;;;;;;;
2021/04/09 00:18:02;;;;;;;8.77;5.7;;;6.3;91.4;;;;;;;;;
2021/04/09 00:18:07;;;;;;;8.77;5.7;;;6.3;91.4;;;;;;;;;
2021/04/09 00:18:17;;;;;;;8.77;5.7;;;6.3;91.4;;;;;;;;;
2021/04/09 00:18:28;;;;;;;8.23;6.43;;;6.3;91.5;;;;;;;;;
2021/04/09 00:18:43;;;;;;;8.23;6.43;;;6.3;91.5;;;;;;;;;
2021/04/09 00:18:53;;;;;;;8.23;6.43;;;6.3;91.5;;;;;;;;;
2021/04/09 00:19:02;;;;;;;8.23;6.43;;;6.3;91.5;;;;;;;;;
2021/04/09 00:19:08;;;;;;;8.23;6.43;;;6.3;91.5;;;;;;;;;
2021/04/09 00:19:14;;;;;;;8.23;6.43;;;6.3;91.5;;;;;;;;;
2021/04/09 00:19:29;;;;;;;7.93;5.87;;;6.3;91.5;;;;;;;;;
2021/04/09 00:19:39;;;;;;;7.93;5.87;;;6.3;91.5;;;;;;;;;
2021/04/09 00:19:55;;;;;;;7.93;5.87;;;6.3;91.5;;;;;;;;;
2021/04/09 00:20:01;;;;;;;7.93;5.87;;;6.3;91.5;;;;;;;;;
2021/04/09 00:20:10;;;;;;;7.93;5.87;;;6.3;91.5;;;;;;;;;
2021/04/09 00:20:15;;;;;;;7.93;5.87;;;6.3;91.5;;;;;;;;;
2021/04/09 00:20:30;;;;;;;11.9;5.4;;;6.3;91.6;;;;;;;;;
2021/04/09 00:20:41;;;;;;;11.9;5.4;;;6.3;91.6;;;;;;;;;
2021/04/09 00:20:56;;;;;;;11.9;5.4;;;6.3;91.6;;;;;;;;;
2021/04/09 00:21:02;;;;;;;11.9;5.4;;;6.3;91.6;;;;;;;;;
2021/04/09 00:21:06;;;;;;;11.9;5.4;;;6.3;91.6;;;;;;;;;
2021/04/09 00:21:16;;;;;;;11.9;5.4;;;6.3;91.6;;;;;;;;;
2021/04/09 00:21:32;;;;;;;11.77;6.33;;;6.3;91.6;;;;;;;;;
2021/04/09 00:21:42;;;;;;;11.77;6.33;;;6.3;91.6;;;;;;;;;
2021/04/09 00:21:52;;;;;;;11.77;6.33;;;6.3;91.6;;;;;;;;;
2021/04/09 00:22:02;;;;;;;11.77;6.33;;;6.3;91.6;;;;;;;;;
2021/04/09 00:22:08;;;;;;;11.77;6.33;;;6.3;91.6;;;;;;;;;
2021/04/09 00:22:13;;;;;;;11.77;6.33;;;6.3;91.6;;;;;;;;;
2021/04/09 00:22:28;;;;;;;8.47;5.9;;;6.3;91.7;;;;;;;;;
2021/04/09 00:22:44;;;;;;;8.47;5.9;;;6.3;91.7;;;;;;;;;
2021/04/09 00:22:54;;;;;;;8.47;5.9;;;6.3;91.7;;;;;;;;;
2021/04/09 00:23:02;;;;;;;8.47;5.9;;;6.3;91.7;;;;;;;;;
2021/04/09 00:23:09;;;;;;;8.47;5.9;;;6.3;91.7;;;;;;;;;
2021/04/09 00:23:14;;;;;;;8.47;5.9;;;6.3;91.7;;;;;;;;;
2021/04/09 00:23:30;;;;;;;8.37;5.9;;;6.4;91.7;;;;;;;;;
2021/04/09 00:23:45;;;;;;;8.37;5.9;;;6.4;91.7;;;;;;;;;
2021/04/09 00:23:55;;;;;;;8.37;5.9;;;6.4;91.7;;;;;;;;;
2021/04/09 00:24:02;;;;;;;8.37;5.9;;;6.4;91.7;;;;;;;;;
2021/04/09 00:24:06;;;;;;;8.37;5.9;;;6.4;91.7;;;;;;;;;
2021/04/09 00:24:16;;;;;;;8.37;5.9;;;6.4;91.7;;;;;;;;;
2021/04/09 00:24:26;;;;;;;9.1;6.2;;;6.4;91.7;;;;;;;;;
2021/04/09 00:24:41;;;;;;;9.1;6.2;;;6.4;91.7;;;;;;;;;
2021/04/09 00:24:57;;;;;;;9.1;6.2;;;6.4;91.7;;;;;;;;;
2021/04/09 00:25:01;;;;;;;9.1;6.2;;;6.4;91.7;;;;;;;;;
2021/04/09 00:25:07;;;;;;;9.1;6.2;;;6.4;91.7;;;;;;;;;
2021/04/09 00:25:12;;;;;;;9.1;6.2;;;6.4;91.7;;;;;;;;;
2021/04/09 00:25:27;;;;;;;7.87;5.8;;;6.3;91.6;;;;;;;;;
2021/04/09 00:25:43;;;;;;;7.87;5.8;;;6.3;91.6;;;;;;;;;
2021/04/09 00:25:58;;;;;;;7.87;5.8;;;6.3;91.6;;;;;;;;;
2021/04/09 00:26:02;;;;;;;7.87;5.8;;;6.3;91.6;;;;;;;;;
2021/04/09 00:26:08;;;;;;;7.87;5.8;;;6.3;91.6;;;;;;;;;
2021/04/09 00:26:13;;;;;;;7.87;5.8;;;6.3;91.6;;;;;;;;;
2021/04/09 00:26:29;;;;;;;9.43;6.3;;;6.3;91.6;;;;;;;;;
2021/04/09 00:26:39;;;;;;;9.43;6.3;;;6.3;91.6;;;;;;;;;
2021/04/09 00:26:54;;;;;;;9.43;6.3;;;6.3;91.6;;;;;;;;;
2021/04/09 00:27:02;;;;;;;9.43;6.3;;;6.3;91.6;;;;;;;;;
2021/04/09 00:27:10;;;;;;;9.43;6.3;;;6.3;91.6;;;;;;;;;
2021/04/09 00:27:15;;;;;;;9.43;6.3;;;6.3;91.6;;;;;;;;;
2021/04/09 00:27:25;;;;;;;7.1;5.57;;;6.3;91.7;;;;;;;;;
2021/04/09 00:27:40;;;;;;;7.1;5.57;;;6.3;91.7;;;;;;;;;
2021/04/09 00:27:56;;;;;;;7.1;5.57;;;6.3;91.7;;;;;;;;;
2021/04/09 00:28:02;;;;;;;7.1;5.57;;;6.3;91.7;;;;;;;;;
2021/04/09 00:28:11;;;;;;;7.1;5.57;;;6.3;91.7;;;;;;;;;
2021/04/09 00:28:16;;;;;;;7.1;5.57;;;6.3;91.7;;;;;;;;;
2021/04/09 00:28:27;;;;;;;8.97;5.93;;;6.3;91.8;;;;;;;;;
2021/04/09 00:28:42;;;;;;;8.97;5.93;;;6.3;91.8;;;;;;;;;
2021/04/09 00:28:52;;;;;;;8.97;5.93;;;6.3;91.8;;;;;;;;;
2021/04/09 00:29:02;;;;;;;8.97;5.93;;;6.3;91.8;;;;;;;;;
2021/04/09 00:29:08;;;;;;;8.97;5.93;;;6.3;91.8;;;;;;;;;
2021/04/09 00:29:13;;;;;;;8.97;5.93;;;6.3;91.8;;;;;;;;;
2021/04/09 00:29:28;;;;;;;7.3;5.4;;;6.3;91.8;;;;;;;;;
2021/04/09 00:29:38;;;;;;;7.3;5.4;;;6.3;91.8;;;;;;;;;
2021/04/09 00:29:54;;;;;;;7.3;5.4;;;6.3;91.8;;;;;;;;;
2021/04/09 00:30:01;;;;;;;7.3;5.4;;;6.3;91.8;;;;;;;;;
2021/04/09 00:30:09;;;;;;;7.3;5.4;;;6.3;91.8;;;;;;;;;
2021/04/09 00:30:17;;;;;;;7.3;5.4;;;6.3;91.8;;;;;;;;;
2021/04/09 00:30:30;;;;;;;9.13;5.47;;;6.3;91.8;;;;;;;;;
2021/04/09 00:30:40;;;;;;;9.13;5.47;;;6.3;91.8;;;;;;;;;
2021/04/09 00:30:55;;;;;;;9.13;5.47;;;6.3;91.8;;;;;;;;;
2021/04/09 00:31:02;;;;;;;9.13;5.47;;;6.3;91.8;;;;;;;;;
2021/04/09 00:31:05;;;;;;;9.13;5.47;;;6.3;91.8;;;;;;;;;
2021/04/09 00:31:16;;;;;;;9.13;5.47;;;6.3;91.8;;;;;;;;;
2021/04/09 00:31:26;;;;;;;10.7;5.87;;;6.3;91.8;;;;;;;;;
2021/04/09 00:31:41;;;;;;;10.7;5.87;;;6.3;91.8;;;;;;;;;
2021/04/09 00:31:51;;;;;;;10.7;5.87;;;6.3;91.8;;;;;;;;;
2021/04/09 00:32:02;;;;;;;10.7;5.87;;;6.3;91.8;;;;;;;;;
2021/04/09 00:32:07;;;;;;;10.7;5.87;;;6.3;91.8;;;;;;;;;
2021/04/09 00:32:17;;;;;;;10.7;5.87;;;6.3;91.8;;;;;;;;;
2021/04/09 00:32:32;;;;;;;10.5;5.87;;;6.3;91.8;;;;;;;;;
2021/04/09 00:32:43;;;;;;;10.5;5.87;;;6.3;91.8;;;;;;;;;
2021/04/09 00:32:53;;;;;;;10.5;5.87;;;6.3;91.8;;;;;;;;;
2021/04/09 00:33:02;;;;;;;10.5;5.87;;;6.3;91.8;;;;;;;;;
2021/04/09 00:33:08;;;;;;;10.5;5.87;;;6.3;91.8;;;;;;;;;
2021/04/09 00:33:13;;;;;;;10.5;5.87;;;6.3;91.8;;;;;;;;;
2021/04/09 00:33:29;;;;;;;7.67;6.2;;;6.3;91.9;;;;;;;;;
2021/04/09 00:33:39;;;;;;;7.67;6.2;;;6.3;91.9;;;;;;;;;
2021/04/09 00:33:54;;;;;;;7.67;6.2;;;6.3;91.9;;;;;;;;;
2021/04/09 00:34:02;;;;;;;7.67;6.2;;;6.3;91.9;;;;;;;;;
2021/04/09 00:34:04;;;;;;;7.67;6.2;;;6.3;91.9;;;;;;;;;
2021/04/09 00:34:15;;;;;;;7.67;6.2;;;6.3;91.9;;;;;;;;;
2021/04/09 00:34:30;;;;;;;12.67;6.53;;;6.4;92;;;;;;;;;
2021/04/09 00:34:45;;;;;;;12.67;6.53;;;6.4;92;;;;;;;;;
2021/04/09 00:34:56;;;;;;;12.67;6.53;;;6.4;92;;;;;;;;;
2021/04/09 00:35:02;;;;;;;12.67;6.53;;;6.4;92;;;;;;;;;
2021/04/09 00:35:06;;;;;;;12.67;6.53;;;6.4;92;;;;;;;;;
2021/04/09 00:35:16;;;;;;;12.67;6.53;;;6.4;92;;;;;;;;;
2021/04/09 00:35:26;;;;;;;7.3;5.8;;;6.4;91.9;;;;;;;;;
2021/04/09 00:35:43;;;;;;;7.3;5.8;;;6.4;91.9;;;;;;;;;
2021/04/09 00:35:52;;;;;;;7.3;5.8;;;6.4;91.9;;;;;;;;;
2021/04/09 00:36:02;;;;;;;7.3;5.8;;;6.4;91.9;;;;;;;;;
2021/04/09 00:36:07;;;;;;;7.3;5.8;;;6.4;91.9;;;;;;;;;
2021/04/09 00:36:12;;;;;;;7.3;5.8;;;6.4;91.9;;;;;;;;;
2021/04/09 00:36:28;;;;;;;8.43;5.6;;;6.3;91.9;;;;;;;;;
2021/04/09 00:36:44;;;;;;;8.43;5.6;;;6.3;91.9;;;;;;;;;
2021/04/09 00:36:59;;;;;;;8.43;5.6;;;6.3;91.9;;;;;;;;;
2021/04/09 00:37:02;;;;;;;8.43;5.6;;;6.3;91.9;;;;;;;;;
2021/04/09 00:37:09;;;;;;;8.43;5.6;;;6.3;91.9;;;;;;;;;
2021/04/09 00:37:16;;;;;;;8.43;5.6;;;6.3;91.9;;;;;;;;;
2021/04/09 00:37:29;;;;;;;7.93;4.9;;;6.4;92;;;;;;;;;
2021/04/09 00:37:39;;;;;;;7.93;4.9;;;6.4;92;;;;;;;;;
2021/04/09 00:37:55;;;;;;;7.93;4.9;;;6.4;92;;;;;;;;;
2021/04/09 00:38:02;;;;;;;7.93;4.9;;;6.4;92;;;;;;;;;
2021/04/09 00:38:05;;;;;;;7.93;4.9;;;6.4;92;;;;;;;;;
2021/04/09 00:38:15;;;;;;;7.93;4.9;;;6.4;92;;;;;;;;;
2021/04/09 00:38:26;;;;;;;9.97;5.2;;;6.4;92;;;;;;;;;
2021/04/09 00:38:41;;;;;;;9.97;5.2;;;6.4;92;;;;;;;;;
2021/04/09 00:38:56;;;;;;;9.97;5.2;;;6.4;92;;;;;;;;;
2021/04/09 00:39:02;;;;;;;9.97;5.2;;;6.4;92;;;;;;;;;
2021/04/09 00:39:12;;;;;;;9.97;5.2;;;6.4;92;;;;;;;;;
2021/04/09 00:39:17;;;;;;;9.97;5.2;;;6.4;92;;;;;;;;;
2021/04/09 00:39:27;;;;;;;7.5;5.67;;;6.4;92;;;;;;;;;
2021/04/09 00:39:42;;;;;;;7.5;5.67;;;6.4;92;;;;;;;;;
2021/04/09 00:39:53;;;;;;;7.5;5.67;;;6.4;92;;;;;;;;;
2021/04/09 00:40:01;;;;;;;7.5;5.67;;;6.4;92;;;;;;;;;
2021/04/09 00:40:08;;;;;;;7.5;5.67;;;6.4;92;;;;;;;;;
2021/04/09 00:40:13;;;;;;;7.5;5.67;;;6.4;92;;;;;;;;;
2021/04/09 00:40:28;;;;;;;7.93;5.4;;;6.4;92;;;;;;;;;
2021/04/09 00:40:39;;;;;;;7.93;5.4;;;6.4;92;;;;;;;;;
2021/04/09 00:40:54;;;;;;;7.93;5.4;;;6.4;92;;;;;;;;;
2021/04/09 00:41:02;;;;;;;7.93;5.4;;;6.4;92;;;;;;;;;
2021/04/09 00:41:11;;;;;;;7.93;5.4;;;6.4;92;;;;;;;;;
2021/04/09 00:41:15;;;;;;;7.93;5.4;;;6.4;92;;;;;;;;;
2021/04/09 00:41:30;;;;;;;7.67;5.43;;;6.4;92.1;;;;;;;;;
2021/04/09 00:41:40;;;;;;;7.67;5.43;;;6.4;92.1;;;;;;;;;
2021/04/09 00:41:56;;;;;;;7.67;5.43;;;6.4;92.1;;;;;;;;;
2021/04/09 00:42:01;;;;;;;7.67;5.43;;;6.4;92.1;;;;;;;;;
2021/04/09 00:42:06;;;;;;;7.67;5.43;;;6.4;92.1;;;;;;;;;
2021/04/09 00:42:16;;;;;;;7.67;5.43;;;6.4;92.1;;;;;;;;;
2021/04/09 00:42:26;;;;;;;8.23;5.7;;;6.4;92.1;;;;;;;;;
2021/04/09 00:42:42;;;;;;;8.23;5.7;;;6.4;92.1;;;;;;;;;
2021/04/09 00:42:53;;;;;;;8.23;5.7;;;6.4;92.1;;;;;;;;;
2021/04/09 00:43:03;;;;;;;8.23;5.7;;;6.4;92.1;;;;;;;;;
2021/04/09 00:43:07;;;;;;;8.23;5.7;;;6.4;92.1;;;;;;;;;
2021/04/09 00:43:12;;;;;;;8.23;5.7;;;6.4;92.1;;;;;;;;;
2021/04/09 00:43:28;;;;;;;7.73;5.23;;;6.4;92.2;;;;;;;;;
2021/04/09 00:43:43;;;;;;;7.73;5.23;;;6.4;92.2;;;;;;;;;
2021/04/09 00:43:53;;;;;;;7.73;5.23;;;6.4;92.2;;;;;;;;;
2021/04/09 00:44:02;;;;;;;7.73;5.23;;;6.4;92.2;;;;;;;;;
2021/04/09 00:44:09;;;;;;;7.73;5.23;;;6.4;92.2;;;;;;;;;
2021/04/09 00:44:14;;;;;;;7.73;5.23;;;6.4;92.2;;;;;;;;;
2021/04/09 00:44:29;;;;;;;7.87;5.13;;;6.4;92.1;;;;;;;;;
2021/04/09 00:44:39;;;;;;;7.87;5.13;;;6.4;92.1;;;;;;;;;
2021/04/09 00:44:55;;;;;;;7.87;5.13;;;6.4;92.1;;;;;;;;;
2021/04/09 00:45:02;;;;;;;7.87;5.13;;;6.4;92.1;;;;;;;;;
2021/04/09 00:45:05;;;;;;;7.87;5.13;;;6.4;92.1;;;;;;;;;
2021/04/09 00:45:15;;;;;;;7.87;5.13;;;6.4;92.1;;;;;;;;;
2021/04/09 00:45:25;;;;;;;7.87;5.13;;;6.4;92.1;;;;;;;;;
2021/04/09 00:45:41;;;;;;;8.1;6.27;;;6.4;92.1;;;;;;;;;
2021/04/09 00:45:56;;;;;;;8.1;6.27;;;6.4;92.1;;;;;;;;;
2021/04/09 00:46:02;;;;;;;8.1;6.27;;;6.4;92.1;;;;;;;;;
2021/04/09 00:46:06;;;;;;;8.1;6.27;;;6.4;92.1;;;;;;;;;
2021/04/09 00:46:17;;;;;;;8.1;6.27;;;6.4;92.1;;;;;;;;;
2021/04/09 00:46:27;;;;;;;8.1;6.27;;;6.4;92.1;;;;;;;;;
2021/04/09 00:46:42;;;;;;;7.33;5.47;;;6.4;92.1;;;;;;;;;
2021/04/09 00:46:52;;;;;;;7.33;5.47;;;6.4;92.1;;;;;;;;;
2021/04/09 00:47:01;;;;;;;7.33;5.47;;;6.4;92.1;;;;;;;;;
2021/04/09 00:47:08;;;;;;;7.33;5.47;;;6.4;92.1;;;;;;;;;
2021/04/09 00:47:13;;;;;;;7.33;5.47;;;6.4;92.1;;;;;;;;;
2021/04/09 00:47:28;;;;;;;8.6;5.53;;;6.4;92.3;;;;;;;;;
2021/04/09 00:47:39;;;;;;;8.6;5.53;;;6.4;92.3;;;;;;;;;
2021/04/09 00:47:54;;;;;;;8.6;5.53;;;6.4;92.3;;;;;;;;;
2021/04/09 00:48:02;;;;;;;8.6;5.53;;;6.4;92.3;;;;;;;;;
2021/04/09 00:48:09;;;;;;;8.6;5.53;;;6.4;92.3;;;;;;;;;
2021/04/09 00:48:15;;;;;;;8.6;5.53;;;6.4;92.3;;;;;;;;;
2021/04/09 00:48:30;;;;;;;6.07;5.2;;;6.4;92.2;;;;;;;;;
2021/04/09 00:48:40;;;;;;;6.07;5.2;;;6.4;92.2;;;;;;;;;
2021/04/09 00:48:55;;;;;;;6.07;5.2;;;6.4;92.2;;;;;;;;;
2021/04/09 00:49:02;;;;;;;6.07;5.2;;;6.4;92.2;;;;;;;;;
2021/04/09 00:49:06;;;;;;;6.07;5.2;;;6.4;92.2;;;;;;;;;
2021/04/09 00:49:16;;;;;;;6.07;5.2;;;6.4;92.2;;;;;;;;;
2021/04/09 00:49:26;;;;;;;6.07;5.2;;;6.4;92.2;;;;;;;;;
2021/04/09 00:49:42;;;;;;;10;5.23;;;6.4;92.2;;;;;;;;;
2021/04/09 00:49:52;;;;;;;10;5.23;;;6.4;92.2;;;;;;;;;
2021/04/09 00:50:02;;;;;;;10;5.23;;;6.4;92.2;;;;;;;;;
2021/04/09 00:50:07;;;;;;;10;5.23;;;6.4;92.2;;;;;;;;;
2021/04/09 00:50:12;;;;;;;10;5.23;;;6.4;92.2;;;;;;;;;
2021/04/09 00:50:28;;;;;;;10;5.23;;;6.4;92.2;;;;;;;;;
2021/04/09 00:50:43;;;;;;;7.8;5.73;;;6.4;92.2;;;;;;;;;
2021/04/09 00:50:53;;;;;;;7.8;5.73;;;6.4;92.2;;;;;;;;;
2021/04/09 00:51:02;;;;;;;7.8;5.73;;;6.4;92.2;;;;;;;;;
2021/04/09 00:51:09;;;;;;;7.8;5.73;;;6.4;92.2;;;;;;;;;
2021/04/09 00:51:14;;;;;;;7.8;5.73;;;6.4;92.2;;;;;;;;;
2021/04/09 00:51:29;;;;;;;8.8;5.5;;;6.4;92.2;;;;;;;;;
2021/04/09 00:51:39;;;;;;;8.8;5.5;;;6.4;92.2;;;;;;;;;
2021/04/09 00:51:55;;;;;;;8.8;5.5;;;6.4;92.2;;;;;;;;;
2021/04/09 00:52:01;;;;;;;8.8;5.5;;;6.4;92.2;;;;;;;;;
2021/04/09 00:52:05;;;;;;;8.8;5.5;;;6.4;92.2;;;;;;;;;
2021/04/09 00:52:15;;;;;;;8.8;5.5;;;6.4;92.2;;;;;;;;;
2021/04/09 00:52:25;;;;;;;8.8;5.5;;;6.4;92.2;;;;;;;;;
2021/04/09 00:52:41;;;;;;;7.3;5.3;;;6.4;92.4;;;;;;;;;
2021/04/09 00:52:56;;;;;;;7.3;5.3;;;6.4;92.4;;;;;;;;;
2021/04/09 00:53:02;;;;;;;7.3;5.3;;;6.4;92.4;;;;;;;;;
2021/04/09 00:53:06;;;;;;;7.3;5.3;;;6.4;92.4;;;;;;;;;
2021/04/09 00:53:16;;;;;;;7.3;5.3;;;6.4;92.4;;;;;;;;;
2021/04/09 00:53:27;;;;;;;7.3;5.3;;;6.4;92.4;;;;;;;;;
2021/04/09 00:53:42;;;;;;;8.27;5.53;;;6.3;92.4;;;;;;;;;
2021/04/09 00:53:52;;;;;;;8.27;5.53;;;6.3;92.4;;;;;;;;;
2021/04/09 00:54:02;;;;;;;8.27;5.53;;;6.3;92.4;;;;;;;;;
2021/04/09 00:54:08;;;;;;;8.27;5.53;;;6.3;92.4;;;;;;;;;
2021/04/09 00:54:13;;;;;;;8.27;5.53;;;6.3;92.4;;;;;;;;;
2021/04/09 00:54:28;;;;;;;8.27;5.53;;;6.3;92.4;;;;;;;;;
2021/04/09 00:54:38;;;;;;;7.7;5.33;;;6.3;92.3;;;;;;;;;
2021/04/09 00:54:54;;;;;;;7.7;5.33;;;6.3;92.3;;;;;;;;;
2021/04/09 00:55:02;;;;;;;7.7;5.33;;;6.3;92.3;;;;;;;;;
2021/04/09 00:55:09;;;;;;;7.7;5.33;;;6.3;92.3;;;;;;;;;
2021/04/09 00:55:14;;;;;;;7.7;5.33;;;6.3;92.3;;;;;;;;;
2021/04/09 00:55:30;;;;;;;7.7;5.33;;;6.3;92.3;;;;;;;;;
2021/04/09 00:55:40;;;;;;;7.17;5.1;;;6.3;92.4;;;;;;;;;
2021/04/09 00:55:55;;;;;;;7.17;5.1;;;6.3;92.4;;;;;;;;;
2021/04/09 00:56:02;;;;;;;7.17;5.1;;;6.3;92.4;;;;;;;;;
2021/04/09 00:56:05;;;;;;;7.17;5.1;;;6.3;92.4;;;;;;;;;
2021/04/09 00:56:16;;;;;;;7.17;5.1;;;6.3;92.4;;;;;;;;;
2021/04/09 00:56:26;;;;;;;7.17;5.1;;;6.3;92.4;;;;;;;;;
2021/04/09 00:56:41;;;;;;;9.2;5.27;;;6.3;92.3;;;;;;;;;
2021/04/09 00:56:52;;;;;;;9.2;5.27;;;6.3;92.3;;;;;;;;;
2021/04/09 00:57:01;;;;;;;9.2;5.27;;;6.3;92.3;;;;;;;;;
2021/04/09 00:57:07;;;;;;;9.2;5.27;;;6.3;92.3;;;;;;;;;
2021/04/09 00:57:17;;;;;;;9.2;5.27;;;6.3;92.3;;;;;;;;;
2021/04/09 00:57:27;;;;;;;9.2;5.27;;;6.3;92.3;;;;;;;;;
2021/04/09 00:57:43;;;;;;;6.93;5.17;;;6.4;92.3;;;;;;;;;
2021/04/09 00:57:53;;;;;;;6.93;5.17;;;6.4;92.3;;;;;;;;;
2021/04/09 00:58:02;;;;;;;6.93;5.17;;;6.4;92.3;;;;;;;;;
2021/04/09 00:58:08;;;;;;;6.93;5.17;;;6.4;92.3;;;;;;;;;
2021/04/09 00:58:14;;;;;;;6.93;5.17;;;6.4;92.3;;;;;;;;;
2021/04/09 00:58:29;;;;;;;6.93;5.17;;;6.4;92.3;;;;;;;;;
2021/04/09 00:58:39;;;;;;;9.1;5.87;;;6.4;92.4;;;;;;;;;
2021/04/09 00:58:54;;;;;;;9.1;5.87;;;6.4;92.4;;;;;;;;;
2021/04/09 00:59:02;;;;;;;9.1;5.87;;;6.4;92.4;;;;;;;;;
2021/04/09 00:59:05;;;;;;;9.1;5.87;;;6.4;92.4;;;;;;;;;
2021/04/09 00:59:15;;;;;;;9.1;5.87;;;6.4;92.4;;;;;;;;;
2021/04/09 00:59:30;;;;;;;9.1;5.87;;;6.4;92.4;;;;;;;;;
2021/04/09 00:59:40;;;;;;;8.13;5.4;;;6.5;92.4;;;;;;;;;
2021/04/09 00:59:56;;;;;;;8.13;5.4;;;6.5;92.4;;;;;;;;;
2021/04/09 01:00:02;;;;;;;8.13;5.4;;;6.5;92.4;;;;;;;;;
2021/04/09 01:00:06;;;;;;;8.13;5.4;;;6.5;92.4;;;;;;;;;
2021/04/09 01:00:16;;;;;;;8.13;5.4;;;6.5;92.4;;;;;;;;;
2021/04/09 01:00:27;;;;;;;8.13;5.4;;;6.5;92.4;;;;;;;;;
2021/04/09 01:00:42;;;;;;;7.43;5.6;;;6.5;92.4;;;;;;;;;
2021/04/09 01:00:52;;;;;;;7.43;5.6;;;6.5;92.4;;;;;;;;;
2021/04/09 01:01:04;;;;;;;7.43;5.6;;;6.5;92.4;;;;;;;;;
2021/04/09 01:01:08;;;;;;;7.43;5.6;;;6.5;92.4;;;;;;;;;
2021/04/09 01:01:13;;;;;;;7.43;5.6;;;6.5;92.4;;;;;;;;;
2021/04/09 01:01:28;;;;;;;7.43;5.6;;;6.5;92.4;;;;;;;;;
2021/04/09 01:01:43;;;;;;;7.07;4.9;;;6.4;92.3;;;;;;;;;
2021/04/09 01:01:54;;;;;;;7.07;4.9;;;6.4;92.3;;;;;;;;;
2021/04/09 01:02:01;;;;;;;7.07;4.9;;;6.4;92.3;;;;;;;;;
2021/04/09 01:02:09;;;;;;;7.07;4.9;;;6.4;92.3;;;;;;;;;
2021/04/09 01:02:14;;;;;;;7.07;4.9;;;6.4;92.3;;;;;;;;;
2021/04/09 01:02:29;;;;;;;7.07;4.9;;;6.4;92.3;;;;;;;;;
2021/04/09 01:02:40;;;;;;;8.2;4.97;;;6.5;92.3;;;;;;;;;
2021/04/09 01:02:55;;;;;;;8.2;4.97;;;6.5;92.3;;;;;;;;;
2021/04/09 01:03:02;;;;;;;8.2;4.97;;;6.5;92.3;;;;;;;;;
2021/04/09 01:03:05;;;;;;;8.2;4.97;;;6.5;92.3;;;;;;;;;
2021/04/09 01:03:16;;;;;;;8.2;4.97;;;6.5;92.3;;;;;;;;;
2021/04/09 01:03:26;;;;;;;8.2;4.97;;;6.5;92.3;;;;;;;;;
2021/04/09 01:03:41;;;;;;;9.2;5.17;;;6.4;92.4;;;;;;;;;
2021/04/09 01:03:56;;;;;;;9.2;5.17;;;6.4;92.4;;;;;;;;;
2021/04/09 01:04:02;;;;;;;9.2;5.17;;;6.4;92.4;;;;;;;;;
2021/04/09 01:04:07;;;;;;;9.2;5.17;;;6.4;92.4;;;;;;;;;
2021/04/09 01:04:12;;;;;;;9.2;5.17;;;6.4;92.4;;;;;;;;;
2021/04/09 01:04:27;;;;;;;9.2;5.17;;;6.4;92.4;;;;;;;;;
2021/04/09 01:04:43;;;;;;;7.7;5;;;6.4;92.3;;;;;;;;;
2021/04/09 01:04:53;;;;;;;7.7;5;;;6.4;92.3;;;;;;;;;
2021/04/09 01:05:02;;;;;;;7.7;5;;;6.4;92.3;;;;;;;;;
2021/04/09 01:05:08;;;;;;;7.7;5;;;6.4;92.3;;;;;;;;;
2021/04/09 01:05:13;;;;;;;7.7;5;;;6.4;92.3;;;;;;;;;
2021/04/09 01:05:29;;;;;;;7.7;5;;;6.4;92.3;;;;;;;;;
2021/04/09 01:05:39;;;;;;;6.77;5.03;;;6.5;92.4;;;;;;;;;
2021/04/09 01:05:54;;;;;;;6.77;5.03;;;6.5;92.4;;;;;;;;;
2021/04/09 01:06:02;;;;;;;6.77;5.03;;;6.5;92.4;;;;;;;;;
2021/04/09 01:06:10;;;;;;;6.77;5.03;;;6.5;92.4;;;;;;;;;
2021/04/09 01:06:15;;;;;;;6.77;5.03;;;6.5;92.4;;;;;;;;;
2021/04/09 01:06:25;;;;;;;6.77;5.03;;;6.5;92.4;;;;;;;;;
2021/04/09 01:06:40;;;;;;;6.73;5.17;;;6.5;92.4;;;;;;;;;
2021/04/09 01:06:56;;;;;;;6.73;5.17;;;6.5;92.4;;;;;;;;;
2021/04/09 01:07:01;;;;;;;6.73;5.17;;;6.5;92.4;;;;;;;;;
2021/04/09 01:07:06;;;;;;;6.73;5.17;;;6.5;92.4;;;;;;;;;
2021/04/09 01:07:16;;;;;;;6.73;5.17;;;6.5;92.4;;;;;;;;;
2021/04/09 01:07:26;;;;;;;6.73;5.17;;;6.5;92.4;;;;;;;;;
2021/04/09 01:07:42;;;;;;;7.03;5.4;;;6.5;92.4;;;;;;;;;
2021/04/09 01:07:52;;;;;;;7.03;5.4;;;6.5;92.4;;;;;;;;;
2021/04/09 01:08:03;;;;;;;7.03;5.4;;;6.5;92.4;;;;;;;;;
2021/04/09 01:08:07;;;;;;;7.03;5.4;;;6.5;92.4;;;;;;;;;
2021/04/09 01:08:12;;;;;;;7.03;5.4;;;6.5;92.4;;;;;;;;;
2021/04/09 01:08:28;;;;;;;7.03;5.4;;;6.5;92.4;;;;;;;;;
2021/04/09 01:08:38;;;;;;;5.73;4.7;;;6.5;92.4;;;;;;;;;
2021/04/09 01:08:53;;;;;;;5.73;4.7;;;6.5;92.4;;;;;;;;;
2021/04/09 01:09:01;;;;;;;5.73;4.7;;;6.5;92.4;;;;;;;;;
2021/04/09 01:09:09;;;;;;;5.73;4.7;;;6.5;92.4;;;;;;;;;
2021/04/09 01:09:14;;;;;;;5.73;4.7;;;6.5;92.4;;;;;;;;;
2021/04/09 01:09:29;;;;;;;5.73;4.7;;;6.5;92.4;;;;;;;;;
2021/04/09 01:09:40;;;;;;;7.87;5.63;;;6.4;92.5;;;;;;;;;
2021/04/09 01:09:55;;;;;;;7.87;5.63;;;6.4;92.5;;;;;;;;;
2021/04/09 01:10:05;;;;;;;7.87;5.63;;;6.4;92.5;;;;;;;;;
2021/04/09 01:10:05;;;;;;;7.87;5.63;;;6.4;92.5;;;;;;;;;
2021/04/09 01:10:15;;;;;;;7.87;5.63;;;6.4;92.5;;;;;;;;;
2021/04/09 01:10:26;;;;;;;7.87;5.63;;;6.4;92.5;;;;;;;;;
2021/04/09 01:10:41;;;;;;;7.47;5.1;;;6.4;92.5;;;;;;;;;
2021/04/09 01:10:51;;;;;;;7.47;5.1;;;6.4;92.5;;;;;;;;;
2021/04/09 01:11:02;;;;;;;7.47;5.1;;;6.4;92.5;;;;;;;;;
2021/04/09 01:11:07;;;;;;;7.47;5.1;;;6.4;92.5;;;;;;;;;
2021/04/09 01:11:17;;;;;;;7.47;5.1;;;6.4;92.5;;;;;;;;;
2021/04/09 01:11:27;;;;;;;7.47;5.1;;;6.4;92.5;;;;;;;;;
2021/04/09 01:11:42;;;;;;;8.53;5.23;;;6.5;92.4;;;;;;;;;
2021/04/09 01:11:53;;;;;;;8.53;5.23;;;6.5;92.4;;;;;;;;;
2021/04/09 01:12:02;;;;;;;8.53;5.23;;;6.5;92.4;;;;;;;;;
2021/04/09 01:12:08;;;;;;;8.53;5.23;;;6.5;92.4;;;;;;;;;
2021/04/09 01:12:18;;;;;;;8.53;5.23;;;6.5;92.4;;;;;;;;;
2021/04/09 01:12:28;;;;;;;8.53;5.23;;;6.5;92.4;;;;;;;;;
2021/04/09 01:12:39;;;;;;;9.53;4.8;;;6.5;92.5;;;;;;;;;
2021/04/09 01:12:54;;;;;;;9.53;4.8;;;6.5;92.5;;;;;;;;;
2021/04/09 01:13:02;;;;;;;9.53;4.8;;;6.5;92.5;;;;;;;;;
2021/04/09 01:13:04;;;;;;;9.53;4.8;;;6.5;92.5;;;;;;;;;
2021/04/09 01:13:15;;;;;;;9.53;4.8;;;6.5;92.5;;;;;;;;;
2021/04/09 01:13:30;;;;;;;9.53;4.8;;;6.5;92.5;;;;;;;;;
2021/04/09 01:13:40;;;;;;;8.77;5;;;6.5;92.4;;;;;;;;;
2021/04/09 01:13:55;;;;;;;8.77;5;;;6.5;92.4;;;;;;;;;
2021/04/09 01:14:01;;;;;;;8.77;5;;;6.5;92.4;;;;;;;;;
2021/04/09 01:14:08;;;;;;;8.77;5;;;6.5;92.4;;;;;;;;;
2021/04/09 01:14:16;;;;;;;8.77;5;;;6.5;92.4;;;;;;;;;
2021/04/09 01:14:31;;;;;;;8.77;5;;;6.5;92.4;;;;;;;;;
2021/04/09 01:14:42;;;;;;;6.8;4.93;;;6.5;92.5;;;;;;;;;
2021/04/09 01:14:52;;;;;;;6.8;4.93;;;6.5;92.5;;;;;;;;;
2021/04/09 01:15:02;;;;;;;6.8;4.93;;;6.5;92.5;;;;;;;;;
2021/04/09 01:15:07;;;;;;;6.8;4.93;;;6.5;92.5;;;;;;;;;
2021/04/09 01:15:12;;;;;;;6.8;4.93;;;6.5;92.5;;;;;;;;;
2021/04/09 01:15:28;;;;;;;6.8;4.93;;;6.5;92.5;;;;;;;;;
2021/04/09 01:15:43;;;;;;;8.77;5.4;;;6.5;92.4;;;;;;;;;
2021/04/09 01:15:53;;;;;;;8.77;5.4;;;6.5;92.4;;;;;;;;;
2021/04/09 01:16:02;;;;;;;8.77;5.4;;;6.5;92.4;;;;;;;;;
2021/04/09 01:16:09;;;;;;;8.77;5.4;;;6.5;92.4;;;;;;;;;
2021/04/09 01:16:14;;;;;;;8.77;5.4;;;6.5;92.4;;;;;;;;;
2021/04/09 01:16:29;;;;;;;8.77;5.4;;;6.5;92.4;;;;;;;;;
2021/04/09 01:16:44;;;;;;;8.7;5.17;;;6.4;92.5;;;;;;;;;
2021/04/09 01:16:55;;;;;;;8.7;5.17;;;6.4;92.5;;;;;;;;;
2021/04/09 01:17:01;;;;;;;8.7;5.17;;;6.4;92.5;;;;;;;;;
2021/04/09 01:17:05;;;;;;;8.7;5.17;;;6.4;92.5;;;;;;;;;
2021/04/09 01:17:15;;;;;;;8.7;5.17;;;6.4;92.5;;;;;;;;;
2021/04/09 01:17:25;;;;;;;8.7;5.17;;;6.4;92.5;;;;;;;;;
2021/04/09 01:17:41;;;;;;;7.7;5.23;;;6.4;92.7;;;;;;;;;
2021/04/09 01:17:56;;;;;;;7.7;5.23;;;6.4;92.7;;;;;;;;;
2021/04/09 01:18:02;;;;;;;7.7;5.23;;;6.4;92.7;;;;;;;;;